sensor_id;sensor_type;location;lat;lon;timestamp;P1;durP1;ratioP1;P2;durP2;ratioP2
3767;SDS011;1899;49.966;7.106;2023-03-14T05:02:05;3.10;;;0.90;;
3767;SDS011;1899;49.966;7.106;2023-03-14T05:04:31;2.00;;;0.80;;
3767;SDS011;1899;49.966;7.106;2023-03-14T05:06:58;3.63;;;1.30;;
3767;SDS011;1899;49.966;7.106;2023-03-14T05:09:23;3.33;;;1.00;;
3767;SDS011;1899;49.966;7.106;2023-03-14T05:11:48;2.43;;;1.00;;
3767;SDS011;1899;49.966;7.106;2023-03-14T05:14:13;2.07;;;0.90;;
3767;SDS011;1899;49.966;7.106;2023-03-14T05:16:39;1.83;;;0.90;;
3767;SDS011;1899;49.966;7.106;2023-03-14T05:19:04;4.00;;;0.80;;
3767;SDS011;1899;49.966;7.106;2023-03-14T05:21:29;1.43;;;1.00;;
3767;SDS011;1899;49.966;7.106;2023-03-14T05:23:54;2.57;;;0.90;;
3767;SDS011;1899;49.966;7.106;2023-03-14T05:26:19;2.60;;;1.23;;
3767;SDS011;1899;49.966;7.106;2023-03-14T05:28:46;2.47;;;1.00;;
3767;SDS011;1899;49.966;7.106;2023-03-14T05:31:12;2.10;;;0.80;;
3767;SDS011;1899;49.966;7.106;2023-03-14T05:33:37;2.27;;;0.90;;
3767;SDS011;1899;49.966;7.106;2023-03-14T05:36:02;2.13;;;0.90;;
3767;SDS011;1899;49.966;7.106;2023-03-14T05:38:28;3.37;;;1.00;;
3767;SDS011;1899;49.966;7.106;2023-03-14T05:40:53;2.33;;;1.00;;
3767;SDS011;1899;49.966;7.106;2023-03-14T05:43:18;3.33;;;1.00;;
3767;SDS011;1899;49.966;7.106;2023-03-14T05:45:44;2.33;;;1.00;;
3767;SDS011;1899;49.966;7.106;2023-03-14T05:48:09;2.00;;;0.90;;
3767;SDS011;1899;49.966;7.106;2023-03-14T05:50:34;2.70;;;1.00;;
3767;SDS011;1899;49.966;7.106;2023-03-14T05:53:00;1.97;;;0.97;;
3767;SDS011;1899;49.966;7.106;2023-03-14T05:55:25;3.10;;;1.10;;
3767;SDS011;1899;49.966;7.106;2023-03-14T05:57:50;2.80;;;0.90;;
3767;SDS011;1899;49.966;7.106;2023-03-14T06:00:15;3.17;;;1.00;;
3767;SDS011;1899;49.966;7.106;2023-03-14T06:02:41;4.80;;;1.10;;
3767;SDS011;1899;49.966;7.106;2023-03-14T06:05:06;3.50;;;1.20;;
3767;SDS011;1899;49.966;7.106;2023-03-14T06:07:32;3.33;;;1.10;;
3767;SDS011;1899;49.966;7.106;2023-03-14T06:09:57;2.77;;;0.80;;
3767;SDS011;1899;49.966;7.106;2023-03-14T06:12:23;2.25;;;1.02;;
3767;SDS011;1899;49.966;7.106;2023-03-14T06:14:48;3.53;;;1.23;;
3767;SDS011;1899;49.966;7.106;2023-03-14T06:17:14;4.33;;;1.17;;
3767;SDS011;1899;49.966;7.106;2023-03-14T06:19:39;1.60;;;0.93;;
3767;SDS011;1899;49.966;7.106;2023-03-14T06:22:04;1.80;;;0.90;;
3767;SDS011;1899;49.966;7.106;2023-03-14T06:24:29;1.90;;;0.90;;
3767;SDS011;1899;49.966;7.106;2023-03-14T06:26:54;1.60;;;0.90;;
3767;SDS011;1899;49.966;7.106;2023-03-14T06:29:20;4.50;;;0.90;;
3767;SDS011;1899;49.966;7.106;2023-03-14T06:31:45;1.60;;;0.80;;
3767;SDS011;1899;49.966;7.106;2023-03-14T06:34:10;2.80;;;1.00;;
3767;SDS011;1899;49.966;7.106;2023-03-14T06:36:35;3.50;;;1.00;;
3767;SDS011;1899;49.966;7.106;2023-03-14T06:39:01;2.10;;;0.80;;
3767;SDS011;1899;49.966;7.106;2023-03-14T06:41:26;1.40;;;0.80;;
3767;SDS011;1899;49.966;7.106;2023-03-14T06:43:51;1.20;;;0.70;;
3767;SDS011;1899;49.966;7.106;2023-03-14T06:46:17;1.90;;;0.80;;
3767;SDS011;1899;49.966;7.106;2023-03-14T06:48:42;2.53;;;0.90;;
3767;SDS011;1899;49.966;7.106;2023-03-14T06:51:07;2.10;;;0.80;;
3767;SDS011;1899;49.966;7.106;2023-03-14T06:53:33;2.00;;;0.80;;
3767;SDS011;1899;49.966;7.106;2023-03-14T06:55:58;1.60;;;0.70;;
3767;SDS011;1899;49.966;7.106;2023-03-14T06:58:23;1.10;;;0.80;;
3767;SDS011;1899;49.966;7.106;2023-03-14T07:00:49;3.93;;;0.90;;
3767;SDS011;1899;49.966;7.106;2023-03-14T07:03:14;1.10;;;0.60;;
3767;SDS011;1899;49.966;7.106;2023-03-14T07:05:39;1.90;;;0.80;;
3767;SDS011;1899;49.966;7.106;2023-03-14T07:08:05;1.30;;;0.70;;
3767;SDS011;1899;49.966;7.106;2023-03-14T07:10:31;3.00;;;1.00;;
3767;SDS011;1899;49.966;7.106;2023-03-14T07:12:56;1.77;;;0.73;;
3767;SDS011;1899;49.966;7.106;2023-03-14T07:15:21;1.30;;;0.70;;
3767;SDS011;1899;49.966;7.106;2023-03-14T07:17:46;2.90;;;0.80;;
3767;SDS011;1899;49.966;7.106;2023-03-14T07:20:13;2.08;;;0.82;;
3767;SDS011;1899;49.966;7.106;2023-03-14T07:22:38;1.47;;;0.80;;
3767;SDS011;1899;49.966;7.106;2023-03-14T07:25:03;1.70;;;0.80;;
3767;SDS011;1899;49.966;7.106;2023-03-14T07:27:29;3.35;;;1.00;;
3767;SDS011;1899;49.966;7.106;2023-03-14T07:29:54;1.50;;;0.73;;
3767;SDS011;1899;49.966;7.106;2023-03-14T07:32:19;2.60;;;0.70;;
3767;SDS011;1899;49.966;7.106;2023-03-14T07:34:44;3.77;;;1.60;;
3767;SDS011;1899;49.966;7.106;2023-03-14T07:37:10;2.10;;;0.90;;
3767;SDS011;1899;49.966;7.106;2023-03-14T07:39:35;1.90;;;1.00;;
3767;SDS011;1899;49.966;7.106;2023-03-14T07:42:00;1.40;;;0.70;;
3767;SDS011;1899;49.966;7.106;2023-03-14T07:44:25;1.60;;;0.70;;
3767;SDS011;1899;49.966;7.106;2023-03-14T07:46:51;1.40;;;0.80;;
3767;SDS011;1899;49.966;7.106;2023-03-14T07:49:16;1.47;;;0.60;;
3767;SDS011;1899;49.966;7.106;2023-03-14T07:51:41;1.52;;;1.10;;
3767;SDS011;1899;49.966;7.106;2023-03-14T07:54:08;1.65;;;0.90;;
3767;SDS011;1899;49.966;7.106;2023-03-14T07:56:34;2.40;;;1.10;;
3767;SDS011;1899;49.966;7.106;2023-03-14T07:58:59;2.93;;;1.47;;
3767;SDS011;1899;49.966;7.106;2023-03-14T08:01:24;1.87;;;0.90;;
3767;SDS011;1899;49.966;7.106;2023-03-14T08:03:53;2.00;;;0.90;;
3767;SDS011;1899;49.966;7.106;2023-03-14T08:06:18;1.70;;;0.90;;
3767;SDS011;1899;49.966;7.106;2023-03-14T08:08:43;1.50;;;0.70;;
3767;SDS011;1899;49.966;7.106;2023-03-14T08:11:09;1.00;;;0.60;;
3767;SDS011;1899;49.966;7.106;2023-03-14T08:13:34;1.70;;;0.80;;
3767;SDS011;1899;49.966;7.106;2023-03-14T08:16:00;1.98;;;0.73;;
3767;SDS011;1899;49.966;7.106;2023-03-14T08:18:25;1.00;;;0.70;;
3767;SDS011;1899;49.966;7.106;2023-03-14T08:20:50;1.90;;;1.00;;
3767;SDS011;1899;49.966;7.106;2023-03-14T08:23:15;1.70;;;0.60;;
3767;SDS011;1899;49.966;7.106;2023-03-14T08:25:41;2.30;;;0.70;;
3767;SDS011;1899;49.966;7.106;2023-03-14T08:28:06;1.10;;;0.70;;
3767;SDS011;1899;49.966;7.106;2023-03-14T08:30:31;0.80;;;0.50;;
3767;SDS011;1899;49.966;7.106;2023-03-14T08:32:57;1.40;;;0.60;;
3767;SDS011;1899;49.966;7.106;2023-03-14T08:35:23;2.20;;;0.60;;
3767;SDS011;1899;49.966;7.106;2023-03-14T08:37:48;2.50;;;0.80;;
3767;SDS011;1899;49.966;7.106;2023-03-14T08:40:14;1.23;;;0.60;;
3767;SDS011;1899;49.966;7.106;2023-03-14T08:42:40;2.10;;;0.60;;
3767;SDS011;1899;49.966;7.106;2023-03-14T08:45:06;2.03;;;0.60;;
3767;SDS011;1899;49.966;7.106;2023-03-14T08:47:31;1.50;;;0.60;;
3767;SDS011;1899;49.966;7.106;2023-03-14T08:49:57;0.70;;;0.50;;
3767;SDS011;1899;49.966;7.106;2023-03-14T08:52:22;1.70;;;0.70;;
3767;SDS011;1899;49.966;7.106;2023-03-14T08:54:47;1.00;;;0.50;;
3767;SDS011;1899;49.966;7.106;2023-03-14T08:57:13;1.50;;;0.60;;
3767;SDS011;1899;49.966;7.106;2023-03-14T08:59:38;2.50;;;0.70;;
3767;SDS011;1899;49.966;7.106;2023-03-14T09:02:03;2.10;;;0.70;;
3767;SDS011;1899;49.966;7.106;2023-03-14T09:04:32;1.10;;;0.70;;
3767;SDS011;1899;49.966;7.106;2023-03-14T09:06:58;0.80;;;0.60;;
3767;SDS011;1899;49.966;7.106;2023-03-14T09:09:24;0.90;;;0.60;;
3767;SDS011;1899;49.966;7.106;2023-03-14T09:11:50;1.50;;;0.70;;
3767;SDS011;1899;49.966;7.106;2023-03-14T09:14:15;0.70;;;0.55;;
3767;SDS011;1899;49.966;7.106;2023-03-14T09:16:40;0.73;;;0.50;;
3767;SDS011;1899;49.966;7.106;2023-03-14T09:19:05;0.77;;;0.60;;
3767;SDS011;1899;49.966;7.106;2023-03-14T09:21:31;1.20;;;0.80;;
3767;SDS011;1899;49.966;7.106;2023-03-14T09:23:56;1.27;;;0.80;;
3767;SDS011;1899;49.966;7.106;2023-03-14T09:26:21;1.40;;;0.60;;
3767;SDS011;1899;49.966;7.106;2023-03-14T09:28:47;1.00;;;0.70;;
3767;SDS011;1899;49.966;7.106;2023-03-14T09:31:12;0.87;;;0.70;;
3767;SDS011;1899;49.966;7.106;2023-03-14T09:33:38;0.80;;;0.60;;
3767;SDS011;1899;49.966;7.106;2023-03-14T09:36:03;0.90;;;0.70;;
3767;SDS011;1899;49.966;7.106;2023-03-14T09:38:29;1.10;;;0.60;;
3767;SDS011;1899;49.966;7.106;2023-03-14T09:40:54;6.53;;;3.63;;
3767;SDS011;1899;49.966;7.106;2023-03-14T09:43:21;0.70;;;0.60;;
3767;SDS011;1899;49.966;7.106;2023-03-14T09:45:47;0.80;;;0.60;;
3767;SDS011;1899;49.966;7.106;2023-03-14T09:48:17;1.20;;;0.60;;
3767;SDS011;1899;49.966;7.106;2023-03-14T09:50:45;1.50;;;0.60;;
3767;SDS011;1899;49.966;7.106;2023-03-14T09:53:15;1.63;;;0.68;;
3767;SDS011;1899;49.966;7.106;2023-03-14T09:55:42;1.30;;;0.70;;
3767;SDS011;1899;49.966;7.106;2023-03-14T09:58:11;2.30;;;0.60;;
3767;SDS011;1899;49.966;7.106;2023-03-14T10:00:37;3.42;;;3.13;;
3767;SDS011;1899;49.966;7.106;2023-03-14T10:05:34;9.77;;;8.70;;
3767;SDS011;1899;49.966;7.106;2023-03-14T10:07:59;2.17;;;0.70;;
3767;SDS011;1899;49.966;7.106;2023-03-14T10:10:25;1.27;;;0.50;;
3767;SDS011;1899;49.966;7.106;2023-03-14T10:13:05;0.90;;;0.50;;
3767;SDS011;1899;49.966;7.106;2023-03-14T10:15:34;0.80;;;0.60;;
3767;SDS011;1899;49.966;7.106;2023-03-14T10:18:00;1.20;;;0.70;;
3767;SDS011;1899;49.966;7.106;2023-03-14T10:20:30;0.90;;;0.70;;
3767;SDS011;1899;49.966;7.106;2023-03-14T10:23:02;1.33;;;0.80;;
3767;SDS011;1899;49.966;7.106;2023-03-14T10:25:32;0.80;;;0.60;;
3767;SDS011;1899;49.966;7.106;2023-03-14T10:27:57;1.30;;;0.60;;
3767;SDS011;1899;49.966;7.106;2023-03-14T10:30:30;0.90;;;0.50;;
3767;SDS011;1899;49.966;7.106;2023-03-14T10:32:57;0.90;;;0.50;;
3767;SDS011;1899;49.966;7.106;2023-03-14T10:35:32;0.70;;;0.50;;
3767;SDS011;1899;49.966;7.106;2023-03-14T10:38:00;0.80;;;0.50;;
3767;SDS011;1899;49.966;7.106;2023-03-14T10:40:47;1.25;;;0.60;;
3767;SDS011;1899;49.966;7.106;2023-03-14T10:43:14;0.80;;;0.50;;
3767;SDS011;1899;49.966;7.106;2023-03-14T10:45:40;0.90;;;0.50;;
3767;SDS011;1899;49.966;7.106;2023-03-14T10:50:39;0.90;;;0.60;;
3767;SDS011;1899;49.966;7.106;2023-03-14T10:53:12;0.77;;;0.60;;
3767;SDS011;1899;49.966;7.106;2023-03-14T10:55:42;1.10;;;0.50;;
3767;SDS011;1899;49.966;7.106;2023-03-14T11:01:09;0.70;;;0.50;;
3767;SDS011;1899;49.966;7.106;2023-03-14T11:03:37;0.75;;;0.60;;
3767;SDS011;1899;49.966;7.106;2023-03-14T11:06:07;1.40;;;0.60;;
3767;SDS011;1899;49.966;7.106;2023-03-14T11:11:10;0.80;;;0.60;;
3767;SDS011;1899;49.966;7.106;2023-03-14T11:13:39;0.80;;;0.60;;
3767;SDS011;1899;49.966;7.106;2023-03-14T11:16:13;0.70;;;0.60;;
3767;SDS011;1899;49.966;7.106;2023-03-14T11:29:02;1.55;;;0.90;;
3767;SDS011;1899;49.966;7.106;2023-03-14T11:31:33;0.82;;;0.63;;
3767;SDS011;1899;49.966;7.106;2023-03-14T11:36:34;1.00;;;0.90;;
3767;SDS011;1899;49.966;7.106;2023-03-14T11:39:02;1.27;;;0.70;;
3767;SDS011;1899;49.966;7.106;2023-03-14T11:41:33;0.73;;;0.60;;
3767;SDS011;1899;49.966;7.106;2023-03-14T11:44:02;0.80;;;0.60;;
3767;SDS011;1899;49.966;7.106;2023-03-14T11:46:34;0.90;;;0.80;;
3767;SDS011;1899;49.966;7.106;2023-03-14T11:51:39;1.00;;;0.80;;
3767;SDS011;1899;49.966;7.106;2023-03-14T11:54:11;1.00;;;0.88;;
3767;SDS011;1899;49.966;7.106;2023-03-14T11:56:43;1.08;;;0.90;;
3767;SDS011;1899;49.966;7.106;2023-03-14T11:59:12;1.20;;;0.90;;
3767;SDS011;1899;49.966;7.106;2023-03-14T12:01:58;1.15;;;0.82;;
3767;SDS011;1899;49.966;7.106;2023-03-14T12:06:53;1.10;;;1.00;;
3767;SDS011;1899;49.966;7.106;2023-03-14T12:09:21;1.60;;;1.20;;
3767;SDS011;1899;49.966;7.106;2023-03-14T12:11:50;2.05;;;1.30;;
3767;SDS011;1899;49.966;7.106;2023-03-14T12:16:43;1.45;;;1.35;;
3767;SDS011;1899;49.966;7.106;2023-03-14T12:21:49;2.45;;;1.83;;
3767;SDS011;1899;49.966;7.106;2023-03-14T12:24:19;2.50;;;1.70;;
3767;SDS011;1899;49.966;7.106;2023-03-14T12:26:58;2.50;;;1.80;;
3767;SDS011;1899;49.966;7.106;2023-03-14T12:29:23;2.75;;;1.80;;
3767;SDS011;1899;49.966;7.106;2023-03-14T12:32:05;1.83;;;1.73;;
3767;SDS011;1899;49.966;7.106;2023-03-14T12:34:34;2.20;;;1.50;;
3767;SDS011;1899;49.966;7.106;2023-03-14T12:37:12;2.10;;;1.70;;
3767;SDS011;1899;49.966;7.106;2023-03-14T12:49:47;1.80;;;1.20;;
3767;SDS011;1899;49.966;7.106;2023-03-14T12:52:17;1.20;;;0.90;;
3767;SDS011;1899;49.966;7.106;2023-03-14T12:59:56;2.15;;;1.30;;
3767;SDS011;1899;49.966;7.106;2023-03-14T13:02:43;2.10;;;1.20;;
3767;SDS011;1899;49.966;7.106;2023-03-14T13:07:36;2.50;;;1.80;;
3767;SDS011;1899;49.966;7.106;2023-03-14T13:12:56;2.30;;;1.75;;
3767;SDS011;1899;49.966;7.106;2023-03-14T13:15:32;1.48;;;1.38;;
3767;SDS011;1899;49.966;7.106;2023-03-14T13:18:02;1.50;;;1.40;;
3767;SDS011;1899;49.966;7.106;2023-03-14T13:22:52;1.67;;;1.50;;
3767;SDS011;1899;49.966;7.106;2023-03-14T13:25:18;2.70;;;1.50;;
3767;SDS011;1899;49.966;7.106;2023-03-14T13:27:45;1.50;;;1.40;;
3767;SDS011;1899;49.966;7.106;2023-03-14T13:30:15;2.90;;;1.80;;
3767;SDS011;1899;49.966;7.106;2023-03-14T13:32:42;1.53;;;1.30;;
3767;SDS011;1899;49.966;7.106;2023-03-14T13:35:15;2.40;;;1.40;;
3767;SDS011;1899;49.966;7.106;2023-03-14T13:37:41;2.85;;;1.30;;
3767;SDS011;1899;49.966;7.106;2023-03-14T13:40:17;1.63;;;1.20;;
3767;SDS011;1899;49.966;7.106;2023-03-14T13:42:43;2.70;;;1.40;;
3767;SDS011;1899;49.966;7.106;2023-03-14T13:45:09;2.47;;;1.20;;
3767;SDS011;1899;49.966;7.106;2023-03-14T13:47:37;4.03;;;1.50;;
3767;SDS011;1899;49.966;7.106;2023-03-14T13:50:03;3.10;;;1.40;;
3767;SDS011;1899;49.966;7.106;2023-03-14T13:52:36;1.70;;;1.30;;
3767;SDS011;1899;49.966;7.106;2023-03-14T13:55:03;2.15;;;1.20;;
3767;SDS011;1899;49.966;7.106;2023-03-14T13:57:45;2.20;;;1.40;;
3767;SDS011;1899;49.966;7.106;2023-03-14T14:00:28;2.00;;;1.10;;
3767;SDS011;1899;49.966;7.106;2023-03-14T14:02:55;1.75;;;0.93;;
3767;SDS011;1899;49.966;7.106;2023-03-14T14:05:21;2.10;;;1.23;;
3767;SDS011;1899;49.966;7.106;2023-03-14T14:07:46;2.75;;;1.02;;
3767;SDS011;1899;49.966;7.106;2023-03-14T14:10:13;1.20;;;1.00;;
3767;SDS011;1899;49.966;7.106;2023-03-14T14:12:40;1.93;;;1.10;;
3767;SDS011;1899;49.966;7.106;2023-03-14T14:15:09;2.10;;;1.20;;
3767;SDS011;1899;49.966;7.106;2023-03-14T14:17:41;1.20;;;1.05;;
3767;SDS011;1899;49.966;7.106;2023-03-14T14:20:19;2.90;;;1.40;;
3767;SDS011;1899;49.966;7.106;2023-03-14T14:22:45;3.20;;;1.00;;
3767;SDS011;1899;49.966;7.106;2023-03-14T14:25:14;4.68;;;1.30;;
3767;SDS011;1899;49.966;7.106;2023-03-14T14:27:44;2.55;;;1.20;;
3767;SDS011;1899;49.966;7.106;2023-03-14T14:32:42;1.73;;;1.30;;
3767;SDS011;1899;49.966;7.106;2023-03-14T14:35:21;2.55;;;1.23;;
3767;SDS011;1899;49.966;7.106;2023-03-14T14:37:48;2.35;;;1.17;;
3767;SDS011;1899;49.966;7.106;2023-03-14T14:40:17;3.63;;;1.30;;
3767;SDS011;1899;49.966;7.106;2023-03-14T14:42:43;1.70;;;1.10;;
3767;SDS011;1899;49.966;7.106;2023-03-14T14:45:24;1.47;;;1.10;;
3767;SDS011;1899;49.966;7.106;2023-03-14T14:47:56;1.92;;;1.00;;
3767;SDS011;1899;49.966;7.106;2023-03-14T14:50:28;1.90;;;1.15;;
3767;SDS011;1899;49.966;7.106;2023-03-14T14:53:00;2.60;;;1.15;;
3767;SDS011;1899;49.966;7.106;2023-03-14T14:55:44;3.50;;;1.10;;
3767;SDS011;1899;49.966;7.106;2023-03-14T14:58:23;2.60;;;1.10;;
3767;SDS011;1899;49.966;7.106;2023-03-14T15:03:17;2.70;;;1.10;;
3767;SDS011;1899;49.966;7.106;2023-03-14T15:05:43;3.47;;;1.00;;
3767;SDS011;1899;49.966;7.106;2023-03-14T15:08:11;2.20;;;1.50;;
3767;SDS011;1899;49.966;7.106;2023-03-14T15:10:36;2.72;;;1.10;;
3767;SDS011;1899;49.966;7.106;2023-03-14T15:13:01;3.30;;;1.30;;
3767;SDS011;1899;49.966;7.106;2023-03-14T15:15:27;3.63;;;1.43;;
3767;SDS011;1899;49.966;7.106;2023-03-14T15:17:52;3.10;;;1.10;;
3767;SDS011;1899;49.966;7.106;2023-03-14T15:20:17;3.40;;;1.30;;
3767;SDS011;1899;49.966;7.106;2023-03-14T15:22:44;4.43;;;1.30;;
3767;SDS011;1899;49.966;7.106;2023-03-14T15:25:09;2.40;;;1.20;;
3767;SDS011;1899;49.966;7.106;2023-03-14T15:27:34;3.00;;;1.38;;
3767;SDS011;1899;49.966;7.106;2023-03-14T15:30:00;4.40;;;1.40;;
3767;SDS011;1899;49.966;7.106;2023-03-14T15:32:25;4.17;;;1.50;;
3767;SDS011;1899;49.966;7.106;2023-03-14T15:34:52;1.70;;;1.17;;
3767;SDS011;1899;49.966;7.106;2023-03-14T15:37:17;2.72;;;1.23;;
3767;SDS011;1899;49.966;7.106;2023-03-14T15:39:43;1.43;;;1.10;;
3767;SDS011;1899;49.966;7.106;2023-03-14T15:42:08;2.10;;;1.20;;
3767;SDS011;1899;49.966;7.106;2023-03-14T15:44:34;2.23;;;1.20;;
3767;SDS011;1899;49.966;7.106;2023-03-14T15:46:59;2.10;;;1.40;;
3767;SDS011;1899;49.966;7.106;2023-03-14T15:49:24;3.53;;;1.30;;
3767;SDS011;1899;49.966;7.106;2023-03-14T15:51:49;2.13;;;1.10;;
3767;SDS011;1899;49.966;7.106;2023-03-14T15:54:15;2.23;;;1.20;;
3767;SDS011;1899;49.966;7.106;2023-03-14T15:56:40;2.03;;;1.10;;
3767;SDS011;1899;49.966;7.106;2023-03-14T15:59:05;4.70;;;1.33;;
3767;SDS011;1899;49.966;7.106;2023-03-14T16:01:31;2.70;;;1.30;;
3767;SDS011;1899;49.966;7.106;2023-03-14T16:03:56;2.80;;;1.40;;
3767;SDS011;1899;49.966;7.106;2023-03-14T16:06:21;3.30;;;1.20;;
3767;SDS011;1899;49.966;7.106;2023-03-14T16:08:46;3.20;;;1.10;;
3767;SDS011;1899;49.966;7.106;2023-03-14T16:11:12;3.10;;;1.10;;
3767;SDS011;1899;49.966;7.106;2023-03-14T16:13:39;2.90;;;1.10;;
3767;SDS011;1899;49.966;7.106;2023-03-14T16:16:04;2.15;;;1.10;;
3767;SDS011;1899;49.966;7.106;2023-03-14T16:18:31;2.33;;;1.10;;
3767;SDS011;1899;49.966;7.106;2023-03-14T16:20:58;3.30;;;1.10;;
3767;SDS011;1899;49.966;7.106;2023-03-14T16:23:24;1.80;;;1.00;;
3767;SDS011;1899;49.966;7.106;2023-03-14T16:25:49;2.58;;;1.10;;
3767;SDS011;1899;49.966;7.106;2023-03-14T16:28:15;3.23;;;1.23;;
3767;SDS011;1899;49.966;7.106;2023-03-14T16:30:40;2.40;;;1.40;;
3767;SDS011;1899;49.966;7.106;2023-03-14T16:33:06;1.85;;;1.10;;
3767;SDS011;1899;49.966;7.106;2023-03-14T16:35:34;2.65;;;1.30;;
3767;SDS011;1899;49.966;7.106;2023-03-14T16:38:00;2.40;;;1.20;;
3767;SDS011;1899;49.966;7.106;2023-03-14T16:40:25;2.37;;;1.50;;
3767;SDS011;1899;49.966;7.106;2023-03-14T16:42:50;1.80;;;1.30;;
3767;SDS011;1899;49.966;7.106;2023-03-14T16:45:17;2.08;;;1.20;;
3767;SDS011;1899;49.966;7.106;2023-03-14T16:47:42;1.23;;;1.10;;
3767;SDS011;1899;49.966;7.106;2023-03-14T16:50:08;2.70;;;1.40;;
3767;SDS011;1899;49.966;7.106;2023-03-14T16:52:33;2.00;;;1.10;;
3767;SDS011;1899;49.966;7.106;2023-03-14T16:54:58;1.40;;;1.00;;
3767;SDS011;1899;49.966;7.106;2023-03-14T16:57:24;1.70;;;1.10;;
3767;SDS011;1899;49.966;7.106;2023-03-14T16:59:49;1.40;;;1.10;;
3767;SDS011;1899;49.966;7.106;2023-03-14T17:02:14;1.70;;;1.10;;
3767;SDS011;1899;49.966;7.106;2023-03-14T17:04:40;1.50;;;1.10;;
3767;SDS011;1899;49.966;7.106;2023-03-14T17:07:06;2.05;;;1.00;;
3767;SDS011;1899;49.966;7.106;2023-03-14T17:09:31;2.77;;;1.10;;
3767;SDS011;1899;49.966;7.106;2023-03-14T17:11:56;1.70;;;1.20;;
3767;SDS011;1899;49.966;7.106;2023-03-14T17:14:22;1.97;;;1.27;;
3767;SDS011;1899;49.966;7.106;2023-03-14T17:16:48;1.90;;;1.30;;
3767;SDS011;1899;49.966;7.106;2023-03-14T17:19:14;4.78;;;1.23;;
3767;SDS011;1899;49.966;7.106;2023-03-14T17:21:40;3.90;;;1.30;;
3767;SDS011;1899;49.966;7.106;2023-03-14T17:24:05;3.93;;;1.43;;
3767;SDS011;1899;49.966;7.106;2023-03-14T17:26:30;4.60;;;1.73;;
3767;SDS011;1899;49.966;7.106;2023-03-14T17:28:55;5.07;;;1.60;;
3767;SDS011;1899;49.966;7.106;2023-03-14T17:31:21;3.80;;;1.90;;
3767;SDS011;1899;49.966;7.106;2023-03-14T17:33:48;4.50;;;1.90;;
3767;SDS011;1899;49.966;7.106;2023-03-14T17:36:15;5.70;;;1.70;;
3767;SDS011;1899;49.966;7.106;2023-03-14T17:38:42;6.28;;;1.65;;
3767;SDS011;1899;49.966;7.106;2023-03-14T17:41:11;4.97;;;1.50;;
3767;SDS011;1899;49.966;7.106;2023-03-14T17:43:36;8.63;;;2.13;;
3767;SDS011;1899;49.966;7.106;2023-03-14T17:46:03;4.50;;;1.50;;
3767;SDS011;1899;49.966;7.106;2023-03-14T17:48:30;4.10;;;1.50;;
3767;SDS011;1899;49.966;7.106;2023-03-14T17:50:55;5.87;;;1.70;;
3767;SDS011;1899;49.966;7.106;2023-03-14T17:53:21;4.45;;;1.60;;
3767;SDS011;1899;49.966;7.106;2023-03-14T17:55:47;5.20;;;1.50;;
3767;SDS011;1899;49.966;7.106;2023-03-14T17:58:12;5.22;;;1.60;;
3767;SDS011;1899;49.966;7.106;2023-03-14T18:00:38;5.50;;;1.90;;
3767;SDS011;1899;49.966;7.106;2023-03-14T18:03:03;5.60;;;1.80;;
3767;SDS011;1899;49.966;7.106;2023-03-14T18:05:28;6.73;;;1.80;;
3767;SDS011;1899;49.966;7.106;2023-03-14T18:07:54;3.57;;;1.57;;
3767;SDS011;1899;49.966;7.106;2023-03-14T18:10:19;7.80;;;1.90;;
3767;SDS011;1899;49.966;7.106;2023-03-14T18:12:45;6.10;;;2.00;;
3767;SDS011;1899;49.966;7.106;2023-03-14T18:15:10;2.60;;;1.40;;
3767;SDS011;1899;49.966;7.106;2023-03-14T18:17:37;6.60;;;1.90;;
3767;SDS011;1899;49.966;7.106;2023-03-14T18:20:02;6.43;;;1.70;;
3767;SDS011;1899;49.966;7.106;2023-03-14T18:22:29;5.78;;;1.80;;
3767;SDS011;1899;49.966;7.106;2023-03-14T18:24:54;5.40;;;1.90;;
3767;SDS011;1899;49.966;7.106;2023-03-14T18:27:19;3.63;;;1.60;;
3767;SDS011;1899;49.966;7.106;2023-03-14T18:29:45;4.40;;;1.53;;
3767;SDS011;1899;49.966;7.106;2023-03-14T18:32:10;7.32;;;2.10;;
3767;SDS011;1899;49.966;7.106;2023-03-14T18:34:36;4.53;;;1.57;;
3767;SDS011;1899;49.966;7.106;2023-03-14T18:37:01;6.60;;;1.90;;
3767;SDS011;1899;49.966;7.106;2023-03-14T18:39:26;7.60;;;1.90;;
3767;SDS011;1899;49.966;7.106;2023-03-14T18:41:52;4.83;;;2.10;;
3767;SDS011;1899;49.966;7.106;2023-03-14T18:44:17;6.30;;;2.10;;
3767;SDS011;1899;49.966;7.106;2023-03-14T18:46:43;4.50;;;2.00;;
3767;SDS011;1899;49.966;7.106;2023-03-14T18:49:09;3.20;;;1.80;;
3767;SDS011;1899;49.966;7.106;2023-03-14T18:51:34;3.17;;;1.92;;
3767;SDS011;1899;49.966;7.106;2023-03-14T18:54:00;4.20;;;2.00;;
3767;SDS011;1899;49.966;7.106;2023-03-14T18:56:25;4.87;;;2.13;;
3767;SDS011;1899;49.966;7.106;2023-03-14T18:58:51;4.15;;;2.15;;
3767;SDS011;1899;49.966;7.106;2023-03-14T19:01:16;3.50;;;1.33;;
3767;SDS011;1899;49.966;7.106;2023-03-14T19:03:42;5.80;;;2.30;;
3767;SDS011;1899;49.966;7.106;2023-03-14T19:06:07;6.07;;;2.17;;
3767;SDS011;1899;49.966;7.106;2023-03-14T19:08:33;3.60;;;1.70;;
3767;SDS011;1899;49.966;7.106;2023-03-14T19:11:00;5.47;;;2.13;;
3767;SDS011;1899;49.966;7.106;2023-03-14T19:13:26;5.10;;;1.90;;
3767;SDS011;1899;49.966;7.106;2023-03-14T19:15:51;4.72;;;1.80;;
3767;SDS011;1899;49.966;7.106;2023-03-14T19:18:17;5.10;;;1.70;;
3767;SDS011;1899;49.966;7.106;2023-03-14T19:20:42;5.80;;;1.77;;
3767;SDS011;1899;49.966;7.106;2023-03-14T19:23:09;5.30;;;1.90;;
3767;SDS011;1899;49.966;7.106;2023-03-14T19:25:34;4.10;;;1.90;;
3767;SDS011;1899;49.966;7.106;2023-03-14T19:27:59;3.10;;;1.70;;
3767;SDS011;1899;49.966;7.106;2023-03-14T19:30:25;2.80;;;2.03;;
3767;SDS011;1899;49.966;7.106;2023-03-14T19:32:51;4.30;;;1.70;;
3767;SDS011;1899;49.966;7.106;2023-03-14T19:35:16;2.97;;;1.40;;
3767;SDS011;1899;49.966;7.106;2023-03-14T19:37:41;3.43;;;1.70;;
3767;SDS011;1899;49.966;7.106;2023-03-14T19:40:09;3.40;;;1.50;;
3767;SDS011;1899;49.966;7.106;2023-03-14T19:42:35;3.35;;;1.42;;
3767;SDS011;1899;49.966;7.106;2023-03-14T19:45:01;2.40;;;1.40;;
3767;SDS011;1899;49.966;7.106;2023-03-14T19:47:27;3.17;;;1.60;;
3767;SDS011;1899;49.966;7.106;2023-03-14T19:49:52;4.40;;;1.90;;
3767;SDS011;1899;49.966;7.106;2023-03-14T19:52:17;2.93;;;1.90;;
3767;SDS011;1899;49.966;7.106;2023-03-14T19:54:42;2.40;;;1.50;;
3767;SDS011;1899;49.966;7.106;2023-03-14T19:57:08;2.20;;;1.70;;
3767;SDS011;1899;49.966;7.106;2023-03-14T19:59:33;3.63;;;1.60;;
3767;SDS011;1899;49.966;7.106;2023-03-14T20:01:58;3.33;;;1.33;;
3767;SDS011;1899;49.966;7.106;2023-03-14T20:04:24;2.73;;;1.60;;
3767;SDS011;1899;49.966;7.106;2023-03-14T20:06:50;3.10;;;1.40;;
3767;SDS011;1899;49.966;7.106;2023-03-14T20:09:17;3.53;;;1.60;;
3767;SDS011;1899;49.966;7.106;2023-03-14T20:11:42;2.37;;;1.43;;
3767;SDS011;1899;49.966;7.106;2023-03-14T20:14:08;3.72;;;1.65;;
3767;SDS011;1899;49.966;7.106;2023-03-14T20:16:33;2.95;;;1.40;;
3767;SDS011;1899;49.966;7.106;2023-03-14T20:19:02;2.53;;;1.40;;
3767;SDS011;1899;49.966;7.106;2023-03-14T20:21:27;2.03;;;1.23;;
3767;SDS011;1899;49.966;7.106;2023-03-14T20:23:53;2.60;;;1.30;;
3767;SDS011;1899;49.966;7.106;2023-03-14T20:26:18;3.80;;;1.73;;
3767;SDS011;1899;49.966;7.106;2023-03-14T20:28:43;2.90;;;1.90;;
3767;SDS011;1899;49.966;7.106;2023-03-14T20:31:10;3.85;;;2.10;;
3767;SDS011;1899;49.966;7.106;2023-03-14T20:33:36;5.43;;;2.03;;
3767;SDS011;1899;49.966;7.106;2023-03-14T20:36:01;4.13;;;1.87;;
3767;SDS011;1899;49.966;7.106;2023-03-14T20:38:27;3.30;;;1.90;;
3767;SDS011;1899;49.966;7.106;2023-03-14T20:40:56;5.00;;;2.15;;
3767;SDS011;1899;49.966;7.106;2023-03-14T20:43:22;4.88;;;1.80;;
3767;SDS011;1899;49.966;7.106;2023-03-14T20:45:57;4.03;;;1.70;;
3767;SDS011;1899;49.966;7.106;2023-03-14T20:48:22;4.20;;;1.80;;
3767;SDS011;1899;49.966;7.106;2023-03-14T20:50:48;6.00;;;2.20;;
3767;SDS011;1899;49.966;7.106;2023-03-14T20:53:13;4.05;;;1.70;;
3767;SDS011;1899;49.966;7.106;2023-03-14T20:55:39;3.10;;;2.00;;
3767;SDS011;1899;49.966;7.106;2023-03-14T20:58:04;3.57;;;1.70;;
